Time;durP1;ratioP1;P1;durP2;ratioP2;P2;SDS_P1;SDS_P2;PMS_P1;PMS_P2;Temp;Humidity;BMP_temperature;BMP_pressure;BME280_temperature;BME280_humidity;BME280_pressure;Samples;Min_cycle;Max_cycle;Signal;HPM_P1;HPM_P2
2021/04/06 00:01:52;;;;;;;;;;;;;;;23.88;36.85;98182.44;4379212;32;34972;-57
2021/04/06 00:04:19;;;;;;;;;;;;;;;23.88;36.80;98192.50;4392572;32;34291;-54
2021/04/06 00:06:50;;;;;;;;;;;;;;;23.87;36.83;98185.41;4379140;32;33581;-59
2021/04/06 00:09:18;;;;;;;;;;;;;;;23.86;36.90;98178.31;4377614;32;34129;-51
2021/04/06 00:11:46;;;;;;;;;;;;;;;23.85;36.93;98179.41;4377613;32;34954;-52
2021/04/06 00:14:13;;;;;;;;;;;;;;;23.83;36.92;98181.59;4364137;32;34066;-56
2021/04/06 00:16:41;;;;;;;;;;;;;;;23.83;36.90;98193.31;4368259;32;33250;-50
2021/04/06 00:19:08;;;;;;;;;;;;;;;23.83;36.97;98187.06;4378879;32;34102;-58
2021/04/06 00:21:35;;;;;;;;;;;;;;;23.82;36.97;98188.94;4392701;32;34940;-53
2021/04/06 00:24:02;;;;;;;;;;;;;;;23.82;36.99;98185.38;4392940;32;34736;-55
2021/04/06 00:26:45;;;;;;;;;;;;;;;23.80;37.01;98182.94;4378931;32;33338;-55
2021/04/06 00:29:13;;;;;;;;;;;;;;;23.79;36.94;98181.31;4378863;32;34152;-56
2021/04/06 00:31:41;;;;;;;;;;;;;;;23.78;37.04;98176.12;4378881;32;34934;-56
2021/04/06 00:34:08;;;;;;;;;;;;;;;23.77;37.14;98182.66;4378718;32;34136;-56
2021/04/06 00:36:35;;;;;;;;;;;;;;;23.77;37.09;98171.75;4378811;32;33157;-53
2021/04/06 00:39:02;;;;;;;;;;;;;;;23.77;37.08;98169.03;4378780;32;33971;-51
2021/04/06 00:41:29;;;;;;;;;;;;;;;23.75;37.10;98166.59;4379015;32;34770;-51
2021/04/06 00:43:55;;;;;;;;;;;;;;;23.75;37.32;98171.22;4378247;32;34021;-53
2021/04/06 00:46:24;;;;;;;;;;;;;;;23.74;37.46;98173.13;4378080;32;33926;-55
2021/04/06 00:48:52;;;;;;;;;;;;;;;23.74;37.43;98175.03;4378808;32;35475;-55
2021/04/06 00:51:19;;;;;;;;;;;;;;;23.72;37.46;98179.91;4392645;32;33900;-58
2021/04/06 00:53:53;;;;;;;;;;;;;;;23.72;37.44;98188.09;4392545;32;34403;-55
2021/04/06 00:56:21;;;;;;;;;;;;;;;23.72;37.30;98178.00;4392498;32;33570;-54
2021/04/06 00:58:52;;;;;;;;;;;;;;;23.71;37.28;98175.56;4392723;32;34473;-55
2021/04/06 01:01:37;;;;;;;;;;;;;;;23.71;37.37;98181.00;4392274;32;35445;-54
2021/04/06 01:04:05;;;;;;;;;;;;;;;23.70;37.46;98182.91;4392541;32;34046;-57
2021/04/06 01:06:33;;;;;;;;;;;;;;;23.68;37.30;98185.88;4392295;32;34037;-56
2021/04/06 01:09:00;;;;;;;;;;;;;;;23.68;37.37;98201.41;4393196;32;34135;-53
2021/04/06 01:11:27;;;;;;;;;;;;;;;23.68;37.26;98226.72;4392459;32;34146;-58
2021/04/06 01:13:59;;;;;;;;;;;;;;;23.67;37.27;98252.31;4392132;32;33959;-51
2021/04/06 01:16:25;;;;;;;;;;;;;;;23.67;37.34;98257.78;4392357;32;33458;-58
2021/04/06 01:18:52;;;;;;;;;;;;;;;23.67;37.32;98260.50;4392236;32;34071;-52
2021/04/06 01:21:19;;;;;;;;;;;;;;;23.65;37.46;98273.56;4378518;32;34180;-58
2021/04/06 01:23:48;;;;;;;;;;;;;;;23.65;37.32;98300.81;4392321;32;33676;-53
2021/04/06 01:26:15;;;;;;;;;;;;;;;23.66;37.39;98298.91;4390456;32;34244;-58
2021/04/06 01:28:42;;;;;;;;;;;;;;;23.65;37.36;98291.81;4380548;32;35444;-57
2021/04/06 01:31:09;;;;;;;;;;;;;;;23.64;37.36;98290.16;4391269;32;34122;-57
2021/04/06 01:33:36;;;;;;;;;;;;;;;23.63;37.32;98302.91;4377014;32;34593;-53
2021/04/06 01:36:05;;;;;;;;;;;;;;;23.63;37.36;98300.19;4377057;32;33258;-56
2021/04/06 01:38:32;;;;;;;;;;;;;;;23.63;37.34;98313.00;4377269;32;34830;-56
2021/04/06 01:41:00;;;;;;;;;;;;;;;23.62;37.33;98323.06;4377199;32;34938;-54
2021/04/06 01:43:30;;;;;;;;;;;;;;;23.61;37.33;98316.00;4390851;32;34325;-53
2021/04/06 01:45:59;;;;;;;;;;;;;;;23.60;37.32;98317.09;4387808;32;33548;-49
2021/04/06 01:48:27;;;;;;;;;;;;;;;23.61;37.33;98342.41;4391966;32;34073;-52
2021/04/06 01:50:54;;;;;;;;;;;;;;;23.60;37.30;98354.37;4401285;32;34063;-53
2021/04/06 01:53:21;;;;;;;;;;;;;;;23.59;37.30;98358.97;4393518;32;34753;-51
2021/04/06 01:55:59;;;;;;;;;;;;;;;23.59;37.37;98378.03;4387570;32;33309;-54
2021/04/06 01:58:28;;;;;;;;;;;;;;;23.58;37.31;98378.31;4406602;32;34217;-49
2021/04/06 02:01:38;;;;;;;;;;;;;;;23.58;37.31;98386.47;4402275;32;34125;-52
2021/04/06 02:03:53;;;;;;;;;;;;;;;23.57;37.46;98391.09;4386176;32;34085;-51
2021/04/06 02:06:20;;;;;;;;;;;;;;;23.56;37.42;98403.09;4392197;32;33264;-56
2021/04/06 02:08:50;;;;;;;;;;;;;;;23.55;37.40;98384.28;4391896;32;34175;-52
2021/04/06 02:11:19;;;;;;;;;;;;;;;23.55;37.37;98396.00;4387070;32;33862;-53
2021/04/06 02:13:46;;;;;;;;;;;;;;;23.54;37.36;98397.06;4397434;32;33574;-56
2021/04/06 02:16:13;;;;;;;;;;;;;;;23.54;37.31;98391.63;4406843;32;32919;-52
2021/04/06 02:18:39;;;;;;;;;;;;;;;23.53;37.35;98392.72;4391830;32;34051;-53
2021/04/06 02:21:06;;;;;;;;;;;;;;;23.53;37.37;98397.34;4391744;32;34279;-55
2021/04/06 02:23:38;;;;;;;;;;;;;;;23.52;37.43;98392.97;4391957;32;34027;-52
2021/04/06 02:26:05;;;;;;;;;;;;;;;23.51;37.44;98391.34;4391913;32;33483;-57
2021/04/06 02:28:32;;;;;;;;;;;;;;;23.50;37.45;98395.97;4392716;32;34146;-51
2021/04/06 02:31:02;;;;;;;;;;;;;;;23.50;37.42;98384.22;4405557;32;34910;-52
2021/04/06 02:33:30;;;;;;;;;;;;;;;23.49;37.46;98386.13;4406727;32;35110;-56
2021/04/06 02:35:58;;;;;;;;;;;;;;;23.49;37.46;98385.31;4406476;32;35460;-54
2021/04/06 02:38:25;;;;;;;;;;;;;;;23.47;37.47;98385.59;4406820;32;34123;-55
2021/04/06 02:41:15;;;;;;;;;;;;;;;23.47;37.45;98373.88;4406918;32;34937;-53
2021/04/06 02:43:45;;;;;;;;;;;;;;;23.46;37.48;98385.87;4406799;32;34126;-57
2021/04/06 02:46:12;;;;;;;;;;;;;;;23.46;37.48;98380.41;4390512;32;33377;-56
2021/04/06 02:48:48;;;;;;;;;;;;;;;23.46;37.53;98391.31;4406714;32;34161;-53
2021/04/06 02:51:15;;;;;;;;;;;;;;;23.45;37.51;98385.03;4398575;32;34289;-55
2021/04/06 02:53:42;;;;;;;;;;;;;;;23.45;37.47;98392.37;4391493;32;34734;-55
2021/04/06 02:56:09;;;;;;;;;;;;;;;23.44;37.47;98383.38;4378210;32;34081;-56
2021/04/06 02:58:36;;;;;;;;;;;;;;;23.42;37.48;98383.66;4391360;32;34920;-58
2021/04/06 03:01:13;;;;;;;;;;;;;;;23.42;37.47;98385.56;4391491;32;35082;-57
2021/04/06 03:03:40;;;;;;;;;;;;;;;23.42;37.52;98388.28;4399729;32;34136;-58
2021/04/06 03:06:07;;;;;;;;;;;;;;;23.40;37.49;98390.44;4406802;32;32792;-53
2021/04/06 03:08:35;;;;;;;;;;;;;;;23.40;37.51;98387.69;4406378;32;34866;-57
2021/04/06 03:11:04;;;;;;;;;;;;;;;23.39;37.49;98384.16;4408212;32;34870;-57
2021/04/06 03:13:31;;;;;;;;;;;;;;;23.38;37.51;98387.97;4408236;32;34010;-56
2021/04/06 03:15:58;;;;;;;;;;;;;;;23.38;37.52;98384.44;4406949;32;33297;-57
2021/04/06 03:18:31;;;;;;;;;;;;;;;23.38;37.52;98387.97;4408371;32;34033;-53
2021/04/06 03:21:05;;;;;;;;;;;;;;;23.37;37.51;98388.25;4408215;32;34954;-49
2021/04/06 03:23:32;;;;;;;;;;;;;;;23.36;37.52;98398.31;4408030;32;34354;-58
2021/04/06 03:26:00;;;;;;;;;;;;;;;23.34;37.59;98386.84;4408310;32;33026;-57
2021/04/06 03:28:34;;;;;;;;;;;;;;;23.34;37.71;98383.31;4407954;32;33874;-58
2021/04/06 03:31:07;;;;;;;;;;;;;;;23.33;37.57;98381.69;4408169;32;34119;-55
2021/04/06 03:33:36;;;;;;;;;;;;;;;23.33;37.61;98398.00;4407851;32;34132;-55
2021/04/06 03:36:04;;;;;;;;;;;;;;;23.32;37.64;98404.53;4406761;32;33204;-55
2021/04/06 03:38:31;;;;;;;;;;;;;;;23.32;37.67;98409.97;4406909;32;33554;-54
2021/04/06 03:40:58;;;;;;;;;;;;;;;23.33;37.61;98419.78;4394784;32;35278;-56
2021/04/06 03:43:25;;;;;;;;;;;;;;;23.31;37.69;98411.84;4392993;32;34835;-56
2021/04/06 03:45:58;;;;;;;;;;;;;;;23.30;37.62;98425.72;4379538;32;33210;-55
2021/04/06 03:48:26;;;;;;;;;;;;;;;23.29;37.71;98426.81;4392818;32;34078;-54
2021/04/06 03:50:53;;;;;;;;;;;;;;;23.30;37.64;98447.50;4392923;32;34162;-53
2021/04/06 03:53:21;;;;;;;;;;;;;;;23.28;37.68;98445.03;4393018;32;33755;-56
2021/04/06 03:56:01;;;;;;;;;;;;;;;23.28;37.72;98449.66;4392777;32;33384;-55
2021/04/06 03:58:32;;;;;;;;;;;;;;;23.29;37.70;98451.31;4392868;32;34036;-52
2021/04/06 04:00:59;;;;;;;;;;;;;;;23.26;37.73;98455.34;4392888;32;34173;-59
2021/04/06 04:03:26;;;;;;;;;;;;;;;23.27;37.69;98461.63;4392714;32;34562;-53
2021/04/06 04:05:53;;;;;;;;;;;;;;;23.26;37.73;98468.13;4393293;32;33370;-49
2021/04/06 04:08:20;;;;;;;;;;;;;;;23.25;37.73;98474.66;4379487;32;34738;-56
2021/04/06 04:10:47;;;;;;;;;;;;;;;23.25;37.74;98486.38;4392548;32;34139;-53
2021/04/06 04:13:14;;;;;;;;;;;;;;;23.24;37.78;98473.84;4392665;32;34264;-57
2021/04/06 04:15:41;;;;;;;;;;;;;;;23.24;37.76;98473.03;4393005;32;33457;-58
2021/04/06 04:18:08;;;;;;;;;;;;;;;23.24;37.75;98473.03;4392827;32;34796;-58
2021/04/06 04:20:34;;;;;;;;;;;;;;;23.23;37.73;98480.38;4392693;32;34363;-53
2021/04/06 04:23:01;;;;;;;;;;;;;;;23.23;37.77;98487.72;4392700;32;34218;-55
2021/04/06 04:25:28;;;;;;;;;;;;;;;23.21;37.79;98493.41;4392573;32;33311;-53
2021/04/06 04:27:55;;;;;;;;;;;;;;;23.21;37.77;98489.88;4392640;32;34450;-50
2021/04/06 04:30:42;;;;;;;;;;;;;;;23.21;37.77;98479.78;4392928;32;34003;-51
2021/04/06 04:33:09;;;;;;;;;;;;;;;23.21;37.78;98498.03;4392513;32;34154;-55
2021/04/06 04:35:36;;;;;;;;;;;;;;;23.20;37.80;98507.28;4376290;32;33299;-54
2021/04/06 04:38:06;;;;;;;;;;;;;;;23.19;37.81;98511.91;4377362;32;34181;-53
2021/04/06 04:40:34;;;;;;;;;;;;;;;23.19;37.80;98521.97;4388192;32;34969;-52
2021/04/06 04:43:01;;;;;;;;;;;;;;;23.18;37.82;98521.16;4392683;32;34142;-50
2021/04/06 04:45:28;;;;;;;;;;;;;;;23.19;37.77;98524.69;4392351;32;33273;-56
2021/04/06 04:47:55;;;;;;;;;;;;;;;23.17;37.67;98531.22;4392560;32;33602;-56
2021/04/06 04:50:22;;;;;;;;;;;;;;;23.16;37.73;98529.53;4386867;32;34099;-52
2021/04/06 04:52:48;;;;;;;;;;;;;;;23.15;37.77;98532.53;4368282;32;34302;-49
2021/04/06 04:55:16;;;;;;;;;;;;;;;23.15;37.79;98549.69;4392607;32;33967;-51
2021/04/06 04:57:43;;;;;;;;;;;;;;;23.14;37.81;98555.38;4386293;32;34136;-49
2021/04/06 05:00:10;;;;;;;;;;;;;;;23.14;37.85;98560.81;4377236;32;34224;-51
2021/04/06 05:02:38;;;;;;;;;;;;;;;23.13;37.78;98565.44;4377431;32;34943;-49
2021/04/06 05:05:05;;;;;;;;;;;;;;;23.13;37.79;98573.63;4377229;32;33443;-51
2021/04/06 05:07:32;;;;;;;;;;;;;;;23.12;37.81;98571.94;4377119;32;34147;-50
2021/04/06 05:09:59;;;;;;;;;;;;;;;23.13;37.85;98573.63;4379984;32;34130;-53
2021/04/06 05:12:26;;;;;;;;;;;;;;;23.12;37.88;98591.00;4375496;32;33680;-50
2021/04/06 05:14:55;;;;;;;;;;;;;;;23.11;37.86;98583.91;4388723;32;33729;-53
2021/04/06 05:17:22;;;;;;;;;;;;;;;23.12;37.86;98584.72;4390708;32;34878;-53
2021/04/06 05:19:49;;;;;;;;;;;;;;;23.10;37.93;98587.72;4377484;32;34132;-48
2021/04/06 05:22:15;;;;;;;;;;;;;;;23.09;37.90;98586.06;4377214;32;34047;-50
2021/04/06 05:24:43;;;;;;;;;;;;;;;23.09;37.80;98596.13;4377245;32;34052;-51
2021/04/06 05:27:09;;;;;;;;;;;;;;;23.08;37.91;98606.19;4377275;32;33907;-54
2021/04/06 05:29:37;;;;;;;;;;;;;;;23.08;37.93;98602.62;4378644;32;33830;-52
2021/04/06 05:32:04;;;;;;;;;;;;;;;23.08;37.90;98603.47;4391711;32;34145;-48
2021/04/06 05:34:31;;;;;;;;;;;;;;;23.08;37.97;98600.75;4394348;32;33011;-49
2021/04/06 05:36:58;;;;;;;;;;;;;;;23.07;37.95;98604.53;4406957;32;34008;-55
2021/04/06 05:39:25;;;;;;;;;;;;;;;23.06;37.98;98605.63;4407291;32;34097;-51
2021/04/06 05:41:52;;;;;;;;;;;;;;;23.05;37.98;98598.53;4390727;32;34054;-53
2021/04/06 05:44:18;;;;;;;;;;;;;;;23.06;38.00;98608.34;4389924;32;33320;-49
2021/04/06 05:46:46;;;;;;;;;;;;;;;23.05;37.98;98601.25;4407270;32;33995;-50
2021/04/06 05:49:14;;;;;;;;;;;;;;;23.04;38.09;98601.53;4400408;32;34144;-53
2021/04/06 05:51:44;;;;;;;;;;;;;;;23.05;37.97;98617.59;4378555;32;34988;-51
2021/04/06 05:54:11;;;;;;;;;;;;;;;23.04;37.98;98609.69;4392223;32;33092;-54
2021/04/06 05:56:38;;;;;;;;;;;;;;;23.03;37.97;98603.38;4403464;32;33970;-54
2021/04/06 05:59:05;;;;;;;;;;;;;;;23.03;37.97;98606.09;4392145;32;35011;-50
2021/04/06 06:01:33;;;;;;;;;;;;;;;23.03;38.00;98625.16;4399554;32;34761;-51
2021/04/06 06:04:00;;;;;;;;;;;;;;;23.03;37.99;98627.06;4407309;32;34125;-52
2021/04/06 06:06:27;;;;;;;;;;;;;;;23.02;38.00;98625.41;4405874;32;33777;-53
2021/04/06 06:08:59;;;;;;;;;;;;;;;23.01;38.03;98638.19;4407164;32;34045;-49
2021/04/06 06:11:26;;;;;;;;;;;;;;;23.01;38.04;98635.47;4407005;32;35111;-51
2021/04/06 06:13:52;;;;;;;;;;;;;;;23.01;37.98;98645.53;4406879;32;32825;-51
2021/04/06 06:16:24;;;;;;;;;;;;;;;23.01;38.04;98648.25;4406907;32;33752;-50
2021/04/06 06:18:51;;;;;;;;;;;;;;;23.00;38.05;98655.59;4406998;32;33794;-49
2021/04/06 06:21:18;;;;;;;;;;;;;;;23.01;38.08;98651.81;4406846;32;34783;-50
2021/04/06 06:23:44;;;;;;;;;;;;;;;23.00;38.06;98650.16;4407025;32;32782;-54
2021/04/06 06:26:12;;;;;;;;;;;;;;;23.00;38.04;98661.03;4405969;32;33951;-51
2021/04/06 06:28:39;;;;;;;;;;;;;;;23.00;38.01;98655.59;4406772;32;33654;-53
2021/04/06 06:31:06;;;;;;;;;;;;;;;23.00;38.02;98658.31;4406853;32;34064;-52
2021/04/06 06:33:35;;;;;;;;;;;;;;;22.99;38.11;98648.53;4404519;32;32904;-51
2021/04/06 06:36:06;;;;;;;;;;;;;;;23.01;37.75;98650.97;4398262;32;34006;-49
2021/04/06 06:38:36;;;;;;;;;;;;;;;23.01;37.99;98654.53;4397288;32;34123;-52
2021/04/06 06:41:09;;;;;;;;;;;;;;;23.05;38.35;98663.00;4399177;32;34431;-52
2021/04/06 06:43:38;;;;;;;;;;;;;;;23.13;38.17;98663.41;4400124;32;34023;-52
2021/04/06 06:46:19;;;;;;;;;;;;;;;23.29;37.99;98680.75;4404072;32;33863;-49
2021/04/06 06:49:08;;;;;;;;;;;;;;;23.47;37.81;98687.78;4401735;32;34187;-51
2021/04/06 06:51:35;;;;;;;;;;;;;;;23.65;37.57;98682.03;4391134;32;34721;-50
2021/04/06 06:54:03;;;;;;;;;;;;;;;23.86;37.29;98706.78;4391471;32;34290;-49
2021/04/06 06:56:38;;;;;;;;;;;;;;;24.02;37.05;98707.78;4391400;32;33944;-47
2021/04/06 06:59:05;;;;;;;;;;;;;;;24.17;36.83;98702.47;4391281;32;34925;-48
2021/04/06 07:01:33;;;;;;;;;;;;;;;24.32;36.59;98704.50;4391490;32;34170;-50
2021/04/06 07:04:00;;;;;;;;;;;;;;;24.46;36.37;98702.22;4391408;32;33313;-52
2021/04/06 07:06:27;;;;;;;;;;;;;;;24.58;36.18;98714.59;4391241;32;34075;-49
2021/04/06 07:08:54;;;;;;;;;;;;;;;24.67;36.00;98712.22;4391339;32;35342;-50
2021/04/06 07:11:21;;;;;;;;;;;;;;;24.76;35.83;98701.62;4385597;32;34798;-54
2021/04/06 07:13:49;;;;;;;;;;;;;;;24.83;35.70;98708.50;4398509;32;33887;-53
2021/04/06 07:16:17;;;;;;;;;;;;;;;24.87;35.54;98701.44;4405030;32;34702;-55
2021/04/06 07:18:44;;;;;;;;;;;;;;;24.90;35.44;98700.94;4391130;32;34047;-53
2021/04/06 07:21:11;;;;;;;;;;;;;;;24.93;35.34;98705.84;4391096;32;33626;-56
2021/04/06 07:23:39;;;;;;;;;;;;;;;24.94;35.27;98696.56;4392221;32;34174;-53
2021/04/06 07:26:07;;;;;;;;;;;;;;;24.95;35.17;98708.34;4394762;32;32928;-49
2021/04/06 07:28:34;;;;;;;;;;;;;;;24.93;30.03;98703.13;4387652;32;34925;-50
2021/04/06 07:31:04;;;;;;;;;;;;;;;24.84;32.69;98701.12;4404743;32;34947;-54
2021/04/06 07:33:31;;;;;;;;;;;;;;;24.77;32.92;98701.38;4394279;32;32870;-54
2021/04/06 07:36:03;;;;;;;;;;;;;;;24.72;32.53;98704.06;4390973;32;34509;-52
2021/04/06 07:38:31;;;;;;;;;;;;;;;24.69;32.66;98699.13;4390990;32;34123;-54
2021/04/06 07:40:59;;;;;;;;;;;;;;;24.68;32.68;98692.03;4391115;32;33991;-55
2021/04/06 07:43:26;;;;;;;;;;;;;;;24.65;32.79;98701.56;4364205;32;33333;-56
2021/04/06 07:45:53;;;;;;;;;;;;;;;24.63;32.82;98701.00;4389153;32;34053;-49
2021/04/06 07:48:38;;;;;;;;;;;;;;;24.62;32.92;98710.28;4405934;32;34121;-53
2021/04/06 07:51:17;;;;;;;;;;;;;;;24.58;33.02;98705.59;4405915;32;34875;-51
2021/04/06 07:54:02;;;;;;;;;;;;;;;24.54;33.06;98707.19;4405902;32;33186;-51
2021/04/06 07:56:44;;;;;;;;;;;;;;;24.52;33.29;98717.53;4407460;32;34181;-52
2021/04/06 07:59:20;;;;;;;;;;;;;;;24.47;33.22;98723.75;4407784;32;34849;-69
2021/04/06 08:01:50;;;;;;;;;;;;;;;24.43;33.42;98733.53;4407948;32;34008;-55
2021/04/06 08:04:17;;;;;;;;;;;;;;;24.42;33.69;98740.91;4407786;32;33332;-52
2021/04/06 08:06:45;;;;;;;;;;;;;;;24.40;33.99;98731.34;4407790;32;34192;-56
2021/04/06 08:09:43;;;;;;;;;;;;;;;24.38;34.08;98744.41;4394319;32;34926;-53
2021/04/06 08:12:17;;;;;;;;;;;;;;;24.37;34.31;98742.75;4407852;32;34137;-48
2021/04/06 08:14:51;;;;;;;;;;;;;;;24.33;34.56;98760.69;4407806;32;33356;-54
2021/04/06 08:17:27;;;;;;;;;;;;;;;24.29;34.87;98756.81;4407883;32;34126;-54
2021/04/06 08:19:55;;;;;;;;;;;;;;;24.25;34.97;98751.06;4397845;32;34030;-53
2021/04/06 08:22:23;;;;;;;;;;;;;;;24.23;35.14;98753.22;4395318;32;34400;-53
2021/04/06 08:24:50;;;;;;;;;;;;;;;24.23;35.24;98752.41;4392466;32;34251;-50
2021/04/06 08:27:37;;;;;;;;;;;;;;;24.22;35.24;98756.22;4378842;32;34834;-52
2021/04/06 08:30:19;;;;;;;;;;;;;;;24.21;35.41;98754.56;4377416;32;33806;-53
2021/04/06 08:33:10;;;;;;;;;;;;;;;24.18;35.46;98743.09;4377247;32;33955;-55
2021/04/06 08:35:47;;;;;;;;;;;;;;;24.17;35.34;98751.53;4372130;32;33244;-54
2021/04/06 08:38:23;;;;;;;;;;;;;;;24.14;35.42;98760.22;4383885;32;33802;-50
2021/04/06 08:41:10;;;;;;;;;;;;;;;24.11;35.54;98755.28;4392380;32;34755;-53
2021/04/06 08:43:41;;;;;;;;;;;;;;;24.10;35.60;98761.78;4383633;32;34093;-51
2021/04/06 08:46:16;;;;;;;;;;;;;;;24.07;35.69;98765.06;4391388;32;32564;-51
2021/04/06 08:48:52;;;;;;;;;;;;;;;24.06;35.74;98777.00;4389889;32;32848;-52
2021/04/06 08:51:23;;;;;;;;;;;;;;;24.04;35.80;98784.62;4391285;32;36278;-50
2021/04/06 08:54:00;;;;;;;;;;;;;;;24.03;35.84;98783.81;4391631;32;34009;-56
2021/04/06 08:56:27;;;;;;;;;;;;;;;24.01;35.89;98780.50;4392308;32;33420;-57
2021/04/06 08:59:13;;;;;;;;;;;;;;;24.00;35.96;98789.75;4392399;32;35004;-56
2021/04/06 09:01:40;;;;;;;;;;;;;;;23.98;36.01;98802.81;4392332;32;34080;-53
2021/04/06 09:04:08;;;;;;;;;;;;;;;23.97;36.08;98792.16;4378761;32;34112;-51
2021/04/06 09:06:35;;;;;;;;;;;;;;;23.96;36.14;98785.06;4377725;32;34014;-52
2021/04/06 09:09:02;;;;;;;;;;;;;;;23.95;36.15;98786.16;4391657;32;34044;-50
2021/04/06 09:11:29;;;;;;;;;;;;;;;23.93;36.17;98781.78;4389872;32;33553;-55
2021/04/06 09:13:56;;;;;;;;;;;;;;;23.93;36.22;98772.78;4363411;32;33954;-51
2021/04/06 09:16:23;;;;;;;;;;;;;;;23.94;36.23;98771.72;4371442;32;33524;-50
2021/04/06 09:19:10;;;;;;;;;;;;;;;23.93;36.21;98780.97;4390853;32;34574;-51
2021/04/06 09:21:37;;;;;;;;;;;;;;;23.93;36.20;98770.06;4384231;32;34068;-52
2021/04/06 09:24:05;;;;;;;;;;;;;;;23.92;36.22;98784.75;4392121;32;34034;-49
2021/04/06 09:26:32;;;;;;;;;;;;;;;23.90;36.27;98778.75;4377708;32;33315;-52
2021/04/06 09:29:03;;;;;;;;;;;;;;;23.90;36.29;98781.47;4395341;32;34128;-58
2021/04/06 09:31:31;;;;;;;;;;;;;;;23.88;36.33;98789.91;4372051;32;34969;-54
2021/04/06 09:34:05;;;;;;;;;;;;;;;23.88;36.38;98802.69;4407057;32;34047;-50
2021/04/06 09:36:32;;;;;;;;;;;;;;;23.86;36.43;98804.84;4397825;32;33704;-50
2021/04/06 09:39:00;;;;;;;;;;;;;;;23.85;36.43;98804.03;4391933;32;33990;-56
2021/04/06 09:41:31;;;;;;;;;;;;;;;23.84;36.46;98821.44;4392054;32;34192;-54
2021/04/06 09:43:58;;;;;;;;;;;;;;;23.81;36.34;98818.41;4392011;32;34050;-52
2021/04/06 09:46:32;;;;;;;;;;;;;;;23.81;36.37;98805.59;4391065;32;33277;-53
2021/04/06 09:48:59;;;;;;;;;;;;;;;23.81;36.24;98823.84;4402538;32;33929;-50
2021/04/06 09:51:25;;;;;;;;;;;;;;;23.82;36.30;98828.22;4405849;32;34104;-54
2021/04/06 09:53:52;;;;;;;;;;;;;;;23.91;36.29;98834.87;4407076;32;34212;-55
2021/04/06 09:56:19;;;;;;;;;;;;;;;24.05;36.14;98833.41;4407179;32;33831;-49
2021/04/06 09:58:46;;;;;;;;;;;;;;;24.23;35.91;98839.62;4392948;32;34498;-54
2021/04/06 10:01:24;;;;;;;;;;;;;;;24.42;35.69;98840.97;4376676;32;35007;-54
2021/04/06 10:03:55;;;;;;;;;;;;;;;24.58;35.46;98850.16;4388928;32;34193;-51
2021/04/06 10:06:32;;;;;;;;;;;;;;;24.75;35.28;98848.13;4376768;32;34200;-50
2021/04/06 10:09:16;;;;;;;;;;;;;;;24.91;35.12;98849.09;4388903;32;34201;-54
2021/04/06 10:11:42;;;;;;;;;;;;;;;25.04;35.01;98845.09;4391170;32;34364;-52
2021/04/06 10:14:10;;;;;;;;;;;;;;;25.17;34.78;98842.78;4377829;32;34144;-51
2021/04/06 10:16:36;;;;;;;;;;;;;;;25.28;34.59;98837.44;4391704;32;34708;-50
2021/04/06 10:19:16;;;;;;;;;;;;;;;25.37;34.45;98847.59;4391651;32;34946;-50
2021/04/06 10:21:43;;;;;;;;;;;;;;;25.50;34.35;98845.47;4391685;32;34223;-53
2021/04/06 10:24:10;;;;;;;;;;;;;;;25.62;34.22;98836.00;4393907;32;33990;-55
2021/04/06 10:26:37;;;;;;;;;;;;;;;25.73;34.11;98830.59;4407033;32;32924;-50
2021/04/06 10:29:08;;;;;;;;;;;;;;;25.82;34.01;98818.09;4405487;32;34920;-52
2021/04/06 10:31:45;;;;;;;;;;;;;;;25.89;33.91;98818.69;4406142;32;34079;-55
2021/04/06 10:34:12;;;;;;;;;;;;;;;25.97;33.81;98818.16;4406807;32;33794;-52
2021/04/06 10:36:39;;;;;;;;;;;;;;;26.06;33.74;98813.81;4406578;32;33234;-50
2021/04/06 10:39:06;;;;;;;;;;;;;;;26.15;33.68;98812.22;4405241;32;34042;-52
2021/04/06 10:41:34;;;;;;;;;;;;;;;26.26;33.61;98813.09;4406511;32;34062;-50
2021/04/06 10:44:03;;;;;;;;;;;;;;;26.36;33.53;98788.50;4405420;32;34058;-53
2021/04/06 10:46:30;;;;;;;;;;;;;;;26.47;33.46;98794.00;4405398;32;32897;-54
2021/04/06 10:49:04;;;;;;;;;;;;;;;26.55;33.37;98783.38;4406673;32;33740;-52
2021/04/06 10:51:31;;;;;;;;;;;;;;;26.63;33.29;98779.28;4393000;32;34088;-55
2021/04/06 10:53:59;;;;;;;;;;;;;;;26.71;33.20;98785.00;4406341;32;34070;-65
2021/04/06 10:56:28;;;;;;;;;;;;;;;26.76;33.13;98781.44;4388842;32;33511;-52
2021/04/06 10:59:02;;;;;;;;;;;;;;;26.80;33.00;98779.81;4386552;32;33900;-55
2021/04/06 11:01:39;;;;;;;;;;;;;;;26.83;32.94;98781.19;4386814;32;34145;-53
2021/04/06 11:04:25;;;;;;;;;;;;;;;26.84;32.88;98769.97;4391612;32;34458;-52
2021/04/06 11:06:56;;;;;;;;;;;;;;;26.85;32.88;98768.88;4391415;32;34039;-51
2021/04/06 11:09:27;;;;;;;;;;;;;;;26.84;32.92;98769.97;4391022;32;34188;-54
2021/04/06 11:11:55;;;;;;;;;;;;;;;26.83;32.96;98778.47;4391423;32;34966;-58
2021/04/06 11:14:22;;;;;;;;;;;;;;;26.81;32.99;98772.41;4391117;32;34075;-51
2021/04/06 11:16:49;;;;;;;;;;;;;;;26.76;33.03;98767.78;4391374;32;32997;-57
2021/04/06 11:19:18;;;;;;;;;;;;;;;26.73;33.01;98753.84;4391422;32;34024;-48
2021/04/06 11:21:48;;;;;;;;;;;;;;;26.68;33.07;98766.41;4390969;32;35044;-50
2021/04/06 11:24:15;;;;;;;;;;;;;;;26.65;33.17;98768.88;4394031;32;34722;-52
2021/04/06 11:26:42;;;;;;;;;;;;;;;26.61;33.28;98774.06;4406099;32;33297;-54
2021/04/06 11:29:10;;;;;;;;;;;;;;;26.57;33.35;98772.97;4406171;32;33715;-52
2021/04/06 11:31:37;;;;;;;;;;;;;;;26.54;33.44;98775.44;4407607;32;34925;-52
2021/04/06 11:34:05;;;;;;;;;;;;;;;26.49;33.67;98776.25;4407933;32;34176;-52
2021/04/06 11:36:32;;;;;;;;;;;;;;;26.46;33.71;98776.78;4407819;32;32907;-57
2021/04/06 11:38:59;;;;;;;;;;;;;;;26.41;33.75;98774.00;4407854;32;34090;-50
2021/04/06 11:41:27;;;;;;;;;;;;;;;26.35;33.81;98773.19;4407843;32;34133;-50
2021/04/06 11:43:53;;;;;;;;;;;;;;;26.31;33.91;98771.25;4408241;32;34755;-52
2021/04/06 11:46:20;;;;;;;;;;;;;;;26.26;33.89;98768.53;4407896;32;33659;-53
2021/04/06 11:48:48;;;;;;;;;;;;;;;26.21;34.07;98774.81;4408085;32;34785;-56
2021/04/06 11:51:16;;;;;;;;;;;;;;;26.15;34.20;98768.47;4407973;32;35069;-52
2021/04/06 11:53:43;;;;;;;;;;;;;;;26.10;34.25;98767.66;4407803;32;34148;-51
2021/04/06 11:56:10;;;;;;;;;;;;;;;26.06;34.29;98761.06;4408098;32;33379;-57
2021/04/06 11:58:37;;;;;;;;;;;;;;;26.01;34.33;98755.59;4407965;32;34145;-51
2021/04/06 12:01:24;;;;;;;;;;;;;;;25.95;34.40;98754.75;4407966;32;34222;-52
2021/04/06 12:04:09;;;;;;;;;;;;;;;25.90;34.46;98757.47;4407780;32;35099;-55
2021/04/06 12:06:37;;;;;;;;;;;;;;;25.86;34.43;98759.09;4391375;32;34867;-52
2021/04/06 12:09:04;;;;;;;;;;;;;;;25.82;34.39;98741.59;4392369;32;34049;-49
2021/04/06 12:11:32;;;;;;;;;;;;;;;25.77;34.44;98752.50;4386703;32;33908;-54
2021/04/06 12:13:59;;;;;;;;;;;;;;;25.70;34.56;98750.81;4384964;32;34049;-52
2021/04/06 12:16:26;;;;;;;;;;;;;;;25.65;34.73;98749.97;4389681;32;33785;-54
2021/04/06 12:18:53;;;;;;;;;;;;;;;25.61;34.79;98749.69;4385976;32;33730;-54
2021/04/06 12:21:20;;;;;;;;;;;;;;;25.56;34.97;98752.41;4402815;32;35150;-52
2021/04/06 12:23:47;;;;;;;;;;;;;;;25.52;35.04;98754.00;4404576;32;34196;-55
2021/04/06 12:26:15;;;;;;;;;;;;;;;25.50;35.08;98756.16;4393822;32;33330;-55
2021/04/06 12:28:42;;;;;;;;;;;;;;;25.46;35.20;98757.81;4392537;32;33539;-52
2021/04/06 12:31:26;;;;;;;;;;;;;;;25.44;35.30;98752.59;4391637;32;34984;-52
2021/04/06 12:33:54;;;;;;;;;;;;;;;25.39;35.38;98762.66;4388117;32;34149;-53
2021/04/06 12:36:21;;;;;;;;;;;;;;;25.35;35.53;98756.91;4392254;32;33349;-49
2021/04/06 12:38:48;;;;;;;;;;;;;;;25.33;35.59;98750.91;4390221;32;34057;-54
2021/04/06 12:41:16;;;;;;;;;;;;;;;25.30;35.62;98751.41;4391355;32;34084;-56
2021/04/06 12:43:43;;;;;;;;;;;;;;;25.27;35.79;98751.94;4389796;32;34151;-49
2021/04/06 12:46:10;;;;;;;;;;;;;;;25.26;35.80;98752.22;4390735;32;34068;-49
2021/04/06 12:48:38;;;;;;;;;;;;;;;25.22;35.76;98743.72;4381654;32;34170;-50
2021/04/06 12:51:06;;;;;;;;;;;;;;;25.19;35.87;98747.81;4377628;32;33815;-51
2021/04/06 12:53:33;;;;;;;;;;;;;;;25.18;35.85;98748.91;4392312;32;34719;-52
2021/04/06 12:56:01;;;;;;;;;;;;;;;25.15;35.85;98735.78;4392410;32;33297;-53
2021/04/06 12:58:28;;;;;;;;;;;;;;;25.13;35.92;98735.22;4392097;32;34505;-54
2021/04/06 13:00:55;;;;;;;;;;;;;;;25.09;35.96;98731.38;4392366;32;34214;-50